Flight Briefing for CMB850

Departure Arrival
Bahrain International Airport (OBBI)
Click to view FAA NOTAMS
RAFO Thumrait (OOTH)
Click to view FAA NOTAMS
Departure Time Arrival Time
N/A N/A
Aircraft Distance
B757-200SF 548nm
Departure METAR Arrival METAR
OBBI 200830Z 31014KT CAVOK 22/10 Q1015 NOSIG No METAR available for OOTH.
Suggested Route
ASTAD N318 VELAM R659 DOH UL564 BAT UL564 KUTNA UT100 GOBRO


View recent IFR Routes data
Notes
USTRANSCOM CONTRACT FLIGHT

Charts and Procedures

Charts for OBBI
No chart available
Charts for OOTH
No chart available

Windy.com Weather Map